Time;durP1;ratioP1;P1;durP2;ratioP2;P2;SDS_P1;SDS_P2;PMS_P1;PMS_P2;Temp;Humidity;BMP_temperature;BMP_pressure;BME280_temperature;BME280_humidity;BME280_pressure;Samples;Min_cycle;Max_cycle;Signal;HPM_P1;HPM_P2
2022/03/16 00:02:22;;;;;;;8.13;6.97;;;8.00;99.90;;;;;;5051026;28;20192;-76
2022/03/16 00:04:51;;;;;;;7.20;6.50;;;7.90;99.90;;;;;;5051364;28;20596;-76
2022/03/16 00:07:18;;;;;;;10.18;6.45;;;7.90;99.90;;;;;;5033278;28;20168;-76
2022/03/16 00:09:45;;;;;;;7.32;6.35;;;7.90;99.90;;;;;;5033001;28;20169;-77
2022/03/16 00:12:12;;;;;;;8.45;7.35;;;7.90;99.90;;;;;;5050357;28;20171;-76
2022/03/16 00:14:38;;;;;;;6.72;6.07;;;7.90;99.90;;;;;;5050449;28;20173;-76
2022/03/16 00:17:04;;;;;;;7.03;6.35;;;7.90;99.90;;;;;;5051206;28;20197;-76
2022/03/16 00:19:34;;;;;;;7.30;6.32;;;7.90;99.90;;;;;;5050701;28;20164;-76
2022/03/16 00:22:02;;;;;;;7.70;7.00;;;7.80;99.90;;;;;;5048923;28;20205;-76
2022/03/16 00:24:28;;;;;;;7.68;7.00;;;7.80;99.90;;;;;;5033198;28;20177;-76
2022/03/16 00:26:54;;;;;;;7.40;6.70;;;7.90;99.90;;;;;;5051098;28;20165;-76
2022/03/16 00:29:20;;;;;;;8.35;7.45;;;7.80;99.90;;;;;;5049692;28;20172;-76
2022/03/16 00:31:46;;;;;;;8.05;7.20;;;7.80;99.90;;;;;;5032934;28;20280;-76
2022/03/16 00:34:13;;;;;;;8.38;7.57;;;7.80;99.90;;;;;;5036510;28;20168;-76
2022/03/16 00:36:39;;;;;;;7.38;6.68;;;7.80;99.90;;;;;;5055272;28;20243;-76
2022/03/16 00:39:06;;;;;;;11.15;7.10;;;7.70;99.90;;;;;;5053972;28;20215;-76
2022/03/16 00:41:36;;;;;;;6.80;6.10;;;7.80;99.90;;;;;;5037029;28;20288;-76
2022/03/16 00:44:04;;;;;;;7.78;6.95;;;7.70;99.90;;;;;;5055062;28;20525;-76
2022/03/16 00:46:30;;;;;;;7.55;6.78;;;7.70;99.90;;;;;;5053372;28;20211;-77
2022/03/16 00:48:55;;;;;;;14.57;8.23;;;7.70;99.90;;;;;;5054693;28;20169;-76
2022/03/16 00:51:21;;;;;;;9.90;8.47;;;7.70;99.90;;;;;;5053553;28;20579;-77
2022/03/16 00:53:47;;;;;;;7.30;6.50;;;7.60;99.90;;;;;;5036984;28;20173;-76
2022/03/16 00:56:13;;;;;;;8.33;7.60;;;7.60;99.90;;;;;;5018844;28;20201;-77
2022/03/16 00:58:39;;;;;;;8.70;7.80;;;7.60;99.90;;;;;;5036898;28;20490;-76
2022/03/16 01:01:08;;;;;;;6.87;6.17;;;7.60;99.90;;;;;;5036160;28;20161;-76
2022/03/16 01:03:35;;;;;;;9.90;7.85;;;7.60;99.90;;;;;;5020312;28;20653;-77
2022/03/16 01:06:02;;;;;;;6.72;6.03;;;7.60;99.90;;;;;;5052823;28;20192;-77
2022/03/16 01:08:28;;;;;;;6.82;6.10;;;7.50;99.90;;;;;;5054575;28;20189;-76
2022/03/16 01:10:54;;;;;;;9.68;7.97;;;7.60;99.90;;;;;;5019841;28;20227;-76
2022/03/16 01:13:21;;;;;;;7.72;6.93;;;7.50;99.90;;;;;;5039422;28;20215;-76
2022/03/16 01:15:46;;;;;;;6.85;6.25;;;7.50;99.90;;;;;;5052719;28;20193;-76
2022/03/16 01:18:12;;;;;;;8.27;7.47;;;7.50;99.90;;;;;;5036214;28;20165;-76
2022/03/16 01:20:38;;;;;;;7.73;7.03;;;7.50;99.90;;;;;;5053950;28;20822;-76
2022/03/16 01:23:03;;;;;;;7.90;7.10;;;7.50;99.90;;;;;;5035868;28;20197;-76
2022/03/16 01:25:29;;;;;;;7.87;7.07;;;7.50;99.90;;;;;;5036461;28;20187;-76
2022/03/16 01:27:55;;;;;;;7.40;6.60;;;7.40;99.90;;;;;;5035848;28;20176;-76
2022/03/16 01:30:21;;;;;;;7.47;6.40;;;7.40;99.90;;;;;;5052984;28;20556;-77
2022/03/16 01:32:47;;;;;;;8.93;8.05;;;7.40;99.90;;;;;;5035399;28;20598;-76
2022/03/16 01:35:13;;;;;;;6.40;5.80;;;7.40;99.90;;;;;;5053730;28;20220;-76
2022/03/16 01:37:43;;;;;;;7.22;6.63;;;7.40;99.90;;;;;;5036439;28;20170;-77
2022/03/16 01:40:10;;;;;;;6.95;6.25;;;7.30;99.90;;;;;;5035216;28;20238;-76
2022/03/16 01:42:35;;;;;;;6.72;6.13;;;7.30;99.90;;;;;;5035860;28;20266;-76
2022/03/16 01:45:04;;;;;;;7.60;6.78;;;7.30;99.90;;;;;;5034445;28;20247;-76
2022/03/16 01:47:29;;;;;;;7.95;7.15;;;7.30;99.90;;;;;;5053836;28;20184;-76
2022/03/16 01:49:56;;;;;;;6.73;6.13;;;7.20;99.90;;;;;;5055956;28;20508;-76
2022/03/16 01:52:27;;;;;;;7.70;6.82;;;7.20;99.90;;;;;;5035909;28;20668;-76
2022/03/16 01:54:54;;;;;;;8.48;6.82;;;7.20;99.90;;;;;;5035363;28;20201;-76
2022/03/16 01:57:20;;;;;;;8.68;7.82;;;7.20;99.90;;;;;;5053033;28;20184;-76
2022/03/16 01:59:47;;;;;;;7.95;7.25;;;7.20;99.90;;;;;;5036650;28;20176;-77
2022/03/16 02:02:14;;;;;;;9.13;6.10;;;7.20;99.90;;;;;;5053257;28;20675;-77
2022/03/16 02:04:41;;;;;;;8.60;7.80;;;7.10;99.90;;;;;;5036316;28;20529;-77
2022/03/16 02:07:07;;;;;;;7.32;6.72;;;7.10;99.90;;;;;;5058425;28;20161;-77
2022/03/16 02:09:33;;;;;;;7.68;6.88;;;7.10;99.90;;;;;;5060694;28;20172;-77
2022/03/16 02:12:00;;;;;;;8.45;7.65;;;7.10;99.90;;;;;;5061519;28;20274;-77
2022/03/16 02:14:25;;;;;;;9.73;7.38;;;7.10;99.90;;;;;;5027147;28;20198;-77
2022/03/16 02:16:55;;;;;;;8.07;7.28;;;7.10;99.90;;;;;;5059977;28;20165;-77
2022/03/16 02:19:20;;;;;;;8.38;7.43;;;7.10;99.90;;;;;;5059135;28;20169;-77
2022/03/16 02:21:49;;;;;;;10.43;6.90;;;7.10;99.90;;;;;;5058206;28;20291;-76
2022/03/16 02:24:14;;;;;;;8.55;7.63;;;7.10;99.90;;;;;;5073831;28;20243;-77
2022/03/16 02:26:40;;;;;;;8.30;7.53;;;7.10;99.90;;;;;;5055102;28;20220;-76
2022/03/16 02:29:06;;;;;;;7.73;7.00;;;7.10;99.90;;;;;;5065058;28;20200;-77
2022/03/16 02:31:32;;;;;;;8.20;7.03;;;7.10;99.90;;;;;;5078826;28;20578;-77
2022/03/16 02:33:58;;;;;;;9.45;8.23;;;7.10;99.90;;;;;;5078443;28;20177;-77
2022/03/16 02:36:23;;;;;;;7.83;7.17;;;7.00;99.90;;;;;;5080867;28;20674;-77
2022/03/16 02:38:49;;;;;;;9.17;8.27;;;7.00;99.90;;;;;;5048363;28;20314;-77
2022/03/16 02:41:15;;;;;;;8.40;7.57;;;7.00;99.90;;;;;;5081604;28;20618;-77
2022/03/16 02:43:41;;;;;;;8.23;7.47;;;7.00;99.90;;;;;;5064564;28;20662;-77
2022/03/16 02:46:07;;;;;;;8.05;7.28;;;7.00;99.90;;;;;;5065426;28;20204;-77
2022/03/16 02:48:33;;;;;;;8.52;7.63;;;7.00;99.90;;;;;;5083966;28;20731;-77
2022/03/16 02:50:59;;;;;;;8.27;7.47;;;7.00;99.90;;;;;;5066411;28;20168;-77
2022/03/16 02:53:24;;;;;;;8.97;7.73;;;7.00;99.90;;;;;;5082036;28;20188;-77
2022/03/16 02:55:50;;;;;;;7.93;7.13;;;7.00;99.90;;;;;;5078567;28;20199;-77
2022/03/16 02:58:17;;;;;;;8.13;7.20;;;7.00;99.90;;;;;;5080477;28;20813;-77
2022/03/16 03:00:43;;;;;;;9.68;8.20;;;6.90;99.90;;;;;;5062218;28;20172;-77
2022/03/16 03:03:09;;;;;;;8.52;7.70;;;6.90;99.90;;;;;;5079538;28;20208;-77
2022/03/16 03:05:35;;;;;;;8.02;7.22;;;6.90;99.90;;;;;;5075338;28;20567;-76
2022/03/16 03:08:01;;;;;;;9.27;8.27;;;6.80;99.90;;;;;;5055603;28;20180;-77
2022/03/16 03:10:27;;;;;;;9.73;8.60;;;6.80;99.90;;;;;;5074814;28;20261;-77
2022/03/16 03:12:53;;;;;;;7.75;7.05;;;6.80;99.90;;;;;;5078135;28;20797;-78
2022/03/16 03:15:19;;;;;;;9.00;7.33;;;6.80;99.90;;;;;;5080305;28;20192;-77
2022/03/16 03:17:45;;;;;;;8.77;7.80;;;6.80;99.90;;;;;;5087103;28;20574;-78
2022/03/16 03:20:12;;;;;;;12.60;9.80;;;6.70;99.90;;;;;;5089060;28;20566;-78
2022/03/16 03:22:38;;;;;;;9.55;8.20;;;6.70;99.90;;;;;;5070473;28;20199;-77
2022/03/16 03:25:08;;;;;;;11.15;9.95;;;6.70;99.90;;;;;;5091249;28;20576;-77
2022/03/16 03:27:34;;;;;;;10.90;8.90;;;6.70;99.90;;;;;;5091496;28;20220;-77
2022/03/16 03:29:59;;;;;;;8.07;7.27;;;6.60;99.90;;;;;;5072925;28;20176;-77
2022/03/16 03:32:25;;;;;;;7.60;6.80;;;6.60;99.90;;;;;;5090911;28;20207;-77
2022/03/16 03:34:51;;;;;;;11.03;9.93;;;6.60;99.90;;;;;;5081342;28;20256;-77
2022/03/16 03:37:18;;;;;;;8.07;7.20;;;6.60;99.90;;;;;;5066294;28;20563;-77
2022/03/16 03:39:45;;;;;;;10.60;9.55;;;6.60;99.90;;;;;;5083006;28;20172;-77
2022/03/16 03:42:11;;;;;;;10.43;9.32;;;6.60;99.90;;;;;;5090779;28;20218;-77
2022/03/16 03:44:38;;;;;;;11.00;9.90;;;6.50;99.90;;;;;;5091395;28;20184;-77
2022/03/16 03:47:08;;;;;;;13.57;11.63;;;6.50;99.90;;;;;;5072521;28;20532;-77
2022/03/16 03:49:36;;;;;;;11.10;9.55;;;6.40;99.90;;;;;;5082135;28;20176;-76
2022/03/16 03:52:03;;;;;;;8.57;7.78;;;6.40;99.90;;;;;;5061771;28;20168;-77
2022/03/16 03:54:29;;;;;;;9.32;8.43;;;6.40;99.90;;;;;;5090779;28;20168;-77
2022/03/16 03:56:55;;;;;;;10.00;8.55;;;6.40;99.90;;;;;;5090891;28;20186;-77
2022/03/16 03:59:21;;;;;;;11.00;9.60;;;6.40;99.90;;;;;;5091837;28;20169;-77
2022/03/16 04:01:47;;;;;;;8.75;7.85;;;6.40;99.90;;;;;;5093302;28;20196;-77
2022/03/16 04:04:13;;;;;;;11.50;10.40;;;6.40;99.90;;;;;;5093858;28;20179;-77
2022/03/16 04:06:39;;;;;;;8.03;7.30;;;6.30;99.90;;;;;;5076296;28;20364;-77
2022/03/16 04:09:05;;;;;;;10.57;8.93;;;6.30;99.90;;;;;;5098590;28;20574;-77
2022/03/16 04:11:31;;;;;;;10.07;9.07;;;6.30;99.90;;;;;;5091080;28;20891;-77
2022/03/16 04:13:57;;;;;;;10.43;8.70;;;6.30;99.90;;;;;;5067130;28;20187;-76
2022/03/16 04:16:26;;;;;;;10.00;8.60;;;6.30;99.90;;;;;;5066460;28;20187;-76
2022/03/16 04:18:51;;;;;;;11.70;8.17;;;6.20;99.90;;;;;;5081902;28;20218;-76
2022/03/16 04:21:17;;;;;;;9.47;8.57;;;6.20;99.90;;;;;;5060238;28;20634;-76
2022/03/16 04:23:43;;;;;;;12.05;10.75;;;6.20;99.90;;;;;;5080197;28;20160;-77
2022/03/16 04:26:09;;;;;;;10.63;9.67;;;6.10;99.90;;;;;;5079807;28;20274;-76
2022/03/16 04:28:35;;;;;;;11.13;10.02;;;6.10;99.90;;;;;;5083863;28;20205;-77
2022/03/16 04:31:01;;;;;;;11.77;10.57;;;6.00;99.90;;;;;;5068192;28;20676;-77
2022/03/16 04:33:28;;;;;;;11.15;9.93;;;6.00;99.90;;;;;;5067692;28;20164;-77
2022/03/16 04:35:54;;;;;;;10.73;9.65;;;6.00;99.90;;;;;;5081859;28;20188;-77
2022/03/16 04:38:19;;;;;;;12.30;10.07;;;5.90;99.90;;;;;;5080354;28;20167;-76
2022/03/16 04:40:46;;;;;;;13.32;11.98;;;5.90;99.90;;;;;;5061808;28;20571;-76
2022/03/16 04:43:12;;;;;;;9.70;8.63;;;5.80;99.90;;;;;;5066325;28;20202;-77
2022/03/16 04:45:39;;;;;;;12.13;10.88;;;5.80;99.90;;;;;;5066802;28;20283;-76
2022/03/16 04:48:09;;;;;;;11.45;10.35;;;5.80;99.90;;;;;;5081778;28;20164;-76
2022/03/16 04:50:35;;;;;;;13.25;10.35;;;5.70;99.90;;;;;;5082230;28;20167;-76
2022/03/16 04:53:02;;;;;;;10.85;9.35;;;5.70;99.90;;;;;;5079867;28;20183;-77
2022/03/16 04:55:30;;;;;;;9.48;8.57;;;5.70;99.90;;;;;;5065708;28;20719;-76
2022/03/16 04:57:56;;;;;;;11.20;10.00;;;5.70;99.90;;;;;;5080657;28;20172;-77
2022/03/16 05:00:24;;;;;;;11.02;9.60;;;5.70;99.90;;;;;;5060477;28;20612;-77
2022/03/16 05:02:49;;;;;;;9.80;8.77;;;5.70;99.90;;;;;;5079438;28;20207;-77
2022/03/16 05:05:15;;;;;;;10.43;9.33;;;5.60;99.90;;;;;;5079651;28;20172;-77
2022/03/16 05:07:41;;;;;;;10.07;8.93;;;5.60;99.90;;;;;;5083478;28;20171;-77
2022/03/16 05:10:07;;;;;;;9.73;8.73;;;5.60;99.90;;;;;;5060911;28;20234;-77
2022/03/16 05:12:38;;;;;;;9.35;8.45;;;5.60;99.90;;;;;;5080088;28;20168;-77
2022/03/16 05:15:06;;;;;;;10.57;9.50;;;5.60;99.90;;;;;;5060924;28;20267;-77
2022/03/16 05:17:32;;;;;;;10.73;8.68;;;5.60;99.90;;;;;;5079558;28;20167;-77
2022/03/16 05:19:58;;;;;;;10.03;8.80;;;5.60;99.90;;;;;;5075571;28;20168;-77
2022/03/16 05:22:24;;;;;;;8.50;7.60;;;5.60;99.90;;;;;;5075292;28;20618;-77
2022/03/16 05:24:49;;;;;;;13.17;9.00;;;5.60;99.90;;;;;;5076165;28;20937;-77
2022/03/16 05:27:19;;;;;;;11.30;9.33;;;5.60;99.90;;;;;;5058767;28;20202;-77
2022/03/16 05:29:45;;;;;;;9.90;8.90;;;5.60;99.90;;;;;;5041680;28;20226;-76
2022/03/16 05:32:11;;;;;;;9.03;7.63;;;5.60;99.90;;;;;;5081260;28;20168;-77
2022/03/16 05:34:36;;;;;;;9.07;8.17;;;5.60;99.90;;;;;;5081656;28;20666;-76
2022/03/16 05:37:03;;;;;;;7.10;5.50;;;5.50;99.90;;;;;;5081884;28;20830;-77
2022/03/16 05:39:28;;;;;;;6.97;6.22;;;5.50;99.90;;;;;;5085876;28;20172;-76
2022/03/16 05:41:54;;;;;;;9.83;8.60;;;5.60;99.90;;;;;;5067238;28;20207;-76
2022/03/16 05:44:20;;;;;;;8.53;7.63;;;5.50;99.90;;;;;;5085096;28;20161;-77
2022/03/16 05:46:45;;;;;;;7.57;6.87;;;5.50;99.90;;;;;;5086395;28;20188;-77
2022/03/16 05:49:11;;;;;;;9.23;8.33;;;5.60;99.90;;;;;;5067744;28;20165;-77
2022/03/16 05:51:37;;;;;;;9.67;8.67;;;5.50;99.90;;;;;;5070247;28;20232;-77
2022/03/16 05:54:04;;;;;;;8.90;7.90;;;5.50;99.90;;;;;;5087962;28;20175;-77
2022/03/16 05:56:36;;;;;;;8.50;6.75;;;5.50;99.90;;;;;;5035350;28;20200;-77
2022/03/16 05:59:01;;;;;;;8.70;7.50;;;5.50;99.90;;;;;;5067038;28;20176;-77
2022/03/16 06:01:27;;;;;;;8.20;7.40;;;5.60;99.90;;;;;;5080719;28;20211;-76
2022/03/16 06:03:53;;;;;;;8.23;7.40;;;5.60;99.90;;;;;;5080132;28;20164;-77
2022/03/16 06:06:20;;;;;;;8.27;7.38;;;5.60;99.90;;;;;;5090347;28;20180;-78
2022/03/16 06:08:46;;;;;;;7.65;6.85;;;5.70;99.90;;;;;;5076145;28;20173;-79
2022/03/16 06:11:11;;;;;;;7.85;7.07;;;5.70;99.90;;;;;;5094171;28;20171;-78
2022/03/16 06:13:37;;;;;;;8.90;8.00;;;5.70;99.90;;;;;;5076842;28;20171;-77
2022/03/16 06:16:03;;;;;;;9.40;7.85;;;5.80;99.90;;;;;;5092443;28;20609;-77
2022/03/16 06:18:29;;;;;;;9.98;8.23;;;5.80;99.90;;;;;;5074325;28;20186;-77
2022/03/16 06:20:55;;;;;;;9.20;7.40;;;5.80;99.90;;;;;;5090948;28;20196;-78
2022/03/16 06:23:21;;;;;;;9.77;8.23;;;5.90;99.90;;;;;;5074588;28;20622;-77
2022/03/16 06:25:46;;;;;;;11.33;8.40;;;5.90;99.90;;;;;;5093428;28;20192;-78
2022/03/16 06:28:12;;;;;;;8.80;7.90;;;6.00;99.90;;;;;;5085529;28;20164;-77
2022/03/16 06:30:38;;;;;;;12.67;9.80;;;6.00;99.90;;;;;;5084013;28;20179;-78
2022/03/16 06:33:04;;;;;;;12.77;11.17;;;6.10;99.90;;;;;;5063477;28;20257;-77
2022/03/16 06:35:30;;;;;;;11.23;10.00;;;6.10;99.90;;;;;;5067231;28;20241;-77
2022/03/16 06:37:56;;;;;;;12.07;9.73;;;6.20;99.90;;;;;;5088003;28;20559;-77
2022/03/16 06:40:21;;;;;;;13.70;10.63;;;6.20;99.90;;;;;;5089996;28;20190;-76
2022/03/16 06:43:05;;;;;;;13.43;10.53;;;6.30;99.90;;;;;;5089627;28;20634;-77
2022/03/16 06:45:31;;;;;;;12.20;9.95;;;6.30;99.90;;;;;;5089262;28;20191;-77
2022/03/16 06:47:58;;;;;;;14.17;10.33;;;6.40;99.90;;;;;;5068569;28;20168;-77
2022/03/16 06:50:25;;;;;;;12.43;10.98;;;6.50;99.90;;;;;;5067462;28;20582;-77
2022/03/16 06:52:53;;;;;;;15.73;13.18;;;6.60;99.90;;;;;;5076449;28;20176;-77
2022/03/16 06:55:19;;;;;;;16.98;13.52;;;6.70;99.90;;;;;;5067785;28;20292;-77
2022/03/16 06:57:44;;;;;;;17.67;14.10;;;6.80;99.90;;;;;;5068339;28;20185;-77
2022/03/16 07:00:13;;;;;;;17.03;14.80;;;6.80;99.90;;;;;;5043033;28;20200;-78
2022/03/16 07:02:59;;;;;;;21.73;16.98;;;6.80;99.90;;;;;;5052060;28;20604;-76
2022/03/16 07:05:31;;;;;;;19.98;17.67;;;6.80;99.90;;;;;;5050358;28;20213;-76
2022/03/16 07:07:58;;;;;;;20.88;16.00;;;6.80;99.90;;;;;;5033942;28;20185;-76
2022/03/16 07:10:25;;;;;;;22.27;18.95;;;6.90;99.90;;;;;;5033600;28;20197;-76
2022/03/16 07:12:51;;;;;;;21.10;17.30;;;7.00;99.90;;;;;;5051782;28;20181;-75
2022/03/16 07:15:18;;;;;;;21.65;18.15;;;7.10;99.90;;;;;;5051643;28;20206;-75
2022/03/16 07:17:44;;;;;;;23.25;18.88;;;7.10;99.90;;;;;;5033811;28;20255;-75
2022/03/16 07:20:10;;;;;;;17.37;15.43;;;7.20;99.90;;;;;;5051026;28;20229;-75
2022/03/16 07:22:37;;;;;;;15.20;13.43;;;7.30;99.90;;;;;;5033804;28;20208;-75
2022/03/16 07:25:09;;;;;;;17.05;14.05;;;7.40;99.90;;;;;;5033268;28;20303;-75
2022/03/16 07:27:39;;;;;;;14.93;13.43;;;7.50;99.90;;;;;;5051387;28;20234;-75
2022/03/16 07:30:10;;;;;;;13.90;12.40;;;7.60;99.90;;;;;;5031706;28;20177;-76
2022/03/16 07:32:39;;;;;;;12.80;11.60;;;7.70;99.90;;;;;;5033332;28;20638;-75
2022/03/16 07:35:09;;;;;;;13.95;11.07;;;7.80;99.90;;;;;;5049980;28;20199;-75
2022/03/16 07:37:36;;;;;;;11.93;10.20;;;7.90;99.90;;;;;;5059771;28;20260;-75
2022/03/16 07:40:03;;;;;;;13.93;10.57;;;8.10;99.90;;;;;;5050215;28;20169;-75
2022/03/16 07:42:30;;;;;;;12.55;11.25;;;8.30;99.90;;;;;;5070459;28;20229;-76
2022/03/16 07:44:56;;;;;;;12.60;11.30;;;8.50;99.90;;;;;;5070036;28;20188;-76
2022/03/16 07:47:25;;;;;;;11.07;9.68;;;8.70;99.90;;;;;;5050150;28;20181;-75
2022/03/16 07:49:51;;;;;;;12.07;10.77;;;9.00;99.90;;;;;;5044266;28;20169;-76
2022/03/16 07:52:17;;;;;;;11.50;10.32;;;9.50;99.90;;;;;;5033383;28;20207;-76
2022/03/16 07:54:43;;;;;;;11.67;10.57;;;10.00;99.90;;;;;;5050372;28;20180;-77
2022/03/16 07:57:10;;;;;;;11.53;10.53;;;10.50;99.90;;;;;;5071314;28;21180;-77
2022/03/16 07:59:35;;;;;;;10.98;9.95;;;10.80;99.90;;;;;;5058292;28;20607;-76
2022/03/16 08:02:01;;;;;;;9.20;8.30;;;11.20;99.90;;;;;;5052898;28;20228;-78
2022/03/16 08:04:27;;;;;;;11.13;9.10;;;11.70;99.90;;;;;;5071397;28;20164;-78
2022/03/16 08:06:52;;;;;;;9.60;8.60;;;12.30;99.90;;;;;;5070240;28;20913;-78
2022/03/16 08:09:18;;;;;;;9.10;8.30;;;12.80;99.90;;;;;;5033563;28;20870;-77
2022/03/16 08:11:44;;;;;;;9.87;9.00;;;13.20;99.90;;;;;;5067125;28;20176;-78
2022/03/16 08:14:11;;;;;;;7.37;6.77;;;13.60;99.90;;;;;;5053192;28;20210;-78
2022/03/16 08:16:38;;;;;;;8.80;8.00;;;13.90;99.90;;;;;;5071181;28;20595;-78
2022/03/16 08:19:03;;;;;;;8.50;7.80;;;14.20;99.90;;;;;;5070975;28;20574;-78
2022/03/16 08:21:29;;;;;;;9.00;8.20;;;14.30;99.90;;;;;;5070604;28;20663;-78
2022/03/16 08:23:55;;;;;;;9.93;8.93;;;14.30;99.90;;;;;;5053449;28;20160;-78
2022/03/16 08:26:21;;;;;;;9.43;8.63;;;14.50;99.90;;;;;;5053371;28;20188;-79
2022/03/16 08:28:48;;;;;;;9.67;8.77;;;14.30;99.90;;;;;;5053239;28;20192;-78
2022/03/16 08:31:15;;;;;;;8.53;7.80;;;14.30;99.90;;;;;;5046506;28;20690;-78
2022/03/16 08:33:41;;;;;;;9.07;8.20;;;14.30;99.90;;;;;;5051157;28;20563;-79
2022/03/16 08:36:08;;;;;;;9.43;8.40;;;14.30;99.90;;;;;;5036354;28;20618;-78
2022/03/16 08:38:37;;;;;;;9.43;8.53;;;14.30;99.90;;;;;;5051265;28;20781;-79
2022/03/16 08:41:04;;;;;;;10.10;9.20;;;14.20;99.90;;;;;;5033543;28;20606;-77
2022/03/16 08:43:30;;;;;;;10.43;9.43;;;14.00;99.90;;;;;;5051521;28;20615;-77
2022/03/16 08:45:58;;;;;;;9.80;8.90;;;13.80;99.90;;;;;;5051027;28;20603;-77
2022/03/16 08:48:24;;;;;;;9.10;8.27;;;13.70;99.90;;;;;;5033221;28;21378;-77
2022/03/16 08:50:51;;;;;;;10.03;9.10;;;13.60;99.90;;;;;;5050747;28;20598;-77
2022/03/16 08:53:17;;;;;;;9.40;8.57;;;13.40;99.90;;;;;;5051272;28;20939;-77
2022/03/16 08:55:42;;;;;;;14.60;10.30;;;13.40;99.90;;;;;;5036886;28;20725;-76
2022/03/16 08:58:08;;;;;;;11.93;10.80;;;13.50;99.90;;;;;;5055329;28;20173;-77
2022/03/16 09:00:34;;;;;;;10.77;9.73;;;13.50;99.90;;;;;;5054546;28;20161;-77
2022/03/16 09:03:00;;;;;;;8.00;7.30;;;13.50;99.90;;;;;;5054668;28;20611;-76
2022/03/16 09:05:26;;;;;;;9.53;8.63;;;13.70;99.90;;;;;;5037534;28;20701;-77
2022/03/16 09:07:53;;;;;;;8.90;8.10;;;14.00;99.90;;;;;;5036767;28;20614;-76
2022/03/16 09:10:18;;;;;;;9.80;8.80;;;14.30;99.90;;;;;;5036271;28;21146;-74
2022/03/16 09:12:44;;;;;;;10.60;9.60;;;14.70;99.90;;;;;;5055487;28;20197;-75
2022/03/16 09:15:10;;;;;;;7.57;6.87;;;14.90;99.90;;;;;;5056905;28;20201;-76
2022/03/16 09:17:36;;;;;;;9.20;8.40;;;15.50;99.90;;;;;;5036232;28;20628;-77
2022/03/16 09:20:03;;;;;;;7.97;7.27;;;16.00;99.90;;;;;;5053893;28;20222;-77
2022/03/16 09:22:32;;;;;;;8.73;8.03;;;16.60;99.90;;;;;;5043032;28;20212;-76
2022/03/16 09:24:58;;;;;;;8.27;7.40;;;16.70;99.90;;;;;;5035003;28;20595;-76
2022/03/16 09:27:25;;;;;;;7.60;7.00;;;16.80;99.90;;;;;;5053622;28;20576;-77
2022/03/16 09:29:53;;;;;;;8.60;7.83;;;16.90;99.90;;;;;;5052862;28;20234;-76
2022/03/16 09:32:21;;;;;;;7.50;6.90;;;17.20;99.90;;;;;;5054068;28;20670;-76
2022/03/16 09:34:48;;;;;;;8.30;7.50;;;17.30;99.90;;;;;;5054142;28;20623;-76
2022/03/16 09:37:14;;;;;;;8.98;8.18;;;17.30;99.90;;;;;;5053547;28;20713;-76
2022/03/16 09:39:40;;;;;;;7.63;7.00;;;17.20;99.60;;;;;;5053762;28;20173;-77
2022/03/16 09:42:08;;;;;;;8.13;7.43;;;17.40;99.90;;;;;;5053350;28;20724;-76
2022/03/16 09:44:34;;;;;;;7.80;6.93;;;17.50;99.90;;;;;;5022501;28;20167;-76
2022/03/16 09:47:01;;;;;;;9.50;8.50;;;17.60;99.90;;;;;;5053979;28;20562;-75
2022/03/16 09:49:27;;;;;;;7.23;6.53;;;17.60;98.00;;;;;;5053917;28;20675;-75
2022/03/16 09:51:54;;;;;;;7.77;7.07;;;17.80;99.70;;;;;;5056654;28;20995;-75
2022/03/16 09:54:21;;;;;;;8.13;7.17;;;17.80;98.00;;;;;;5053797;28;20615;-75
2022/03/16 09:56:50;;;;;;;5.67;5.20;;;17.80;96.80;;;;;;5046933;28;20630;-75
2022/03/16 09:59:16;;;;;;;7.53;6.93;;;18.00;98.90;;;;;;5055499;28;20990;-74
2022/03/16 10:01:43;;;;;;;8.07;7.27;;;18.20;98.10;;;;;;5055357;28;20615;-74
2022/03/16 10:04:09;;;;;;;7.80;7.10;;;18.20;98.00;;;;;;5065860;28;21259;-75
2022/03/16 10:06:40;;;;;;;6.53;5.93;;;18.40;98.30;;;;;;5055640;28;20243;-75
2022/03/16 10:15:10;;;;;;;7.20;6.60;;;19.60;99.70;;;;;;5073001;28;20598;-76
2022/03/16 10:17:46;;;;;;;6.87;6.23;;;20.10;97.30;;;;;;5073354;28;20570;-76
2022/03/16 10:20:26;;;;;;;7.03;6.43;;;20.30;94.40;;;;;;5071945;28;20726;-75
2022/03/16 10:22:58;;;;;;;7.23;6.47;;;20.10;92.00;;;;;;5055155;28;20275;-76
2022/03/16 10:25:25;;;;;;;6.83;6.23;;;20.30;93.50;;;;;;5073192;28;21172;-75
2022/03/16 10:27:50;;;;;;;8.43;7.67;;;20.10;91.70;;;;;;5058165;28;20708;-74
2022/03/16 10:30:16;;;;;;;5.80;5.30;;;20.10;91.60;;;;;;5072980;28;20653;-74
2022/03/16 10:32:53;;;;;;;5.33;4.93;;;20.30;94.90;;;;;;5036516;28;20805;-74
2022/03/16 10:35:19;;;;;;;5.50;5.00;;;20.50;93.80;;;;;;5052916;28;20200;-75
2022/03/16 10:37:47;;;;;;;5.30;4.90;;;20.70;93.40;;;;;;5053122;28;21212;-75
2022/03/16 10:40:26;;;;;;;5.17;4.70;;;20.70;92.90;;;;;;5052904;28;20578;-75
2022/03/16 10:48:25;;;;;;;6.20;5.70;;;20.20;90.20;;;;;;5052734;28;20590;-75
2022/03/16 10:51:02;;;;;;;5.57;5.07;;;20.40;92.40;;;;;;5052624;28;20564;-75
2022/03/16 10:53:31;;;;;;;6.10;5.60;;;20.30;86.70;;;;;;5035371;28;20594;-74
2022/03/16 10:55:59;;;;;;;6.83;5.93;;;20.20;90.00;;;;;;5043273;28;20615;-75
2022/03/16 10:58:27;;;;;;;6.20;5.70;;;20.10;89.70;;;;;;5071649;28;20586;-75
2022/03/16 11:00:53;;;;;;;8.80;7.97;;;20.20;90.20;;;;;;5073824;28;20654;-75
2022/03/16 11:03:22;;;;;;;6.83;6.13;;;19.80;82.30;;;;;;5072458;28;20645;-75
2022/03/16 11:05:49;;;;;;;5.13;4.73;;;19.60;87.00;;;;;;5069483;28;21052;-75
2022/03/16 11:08:15;;;;;;;6.07;5.57;;;19.70;90.30;;;;;;5052606;28;20590;-75
2022/03/16 11:10:42;;;;;;;6.40;5.90;;;19.70;87.60;;;;;;5047882;28;20614;-75
2022/03/16 11:16:00;;;;;;;6.70;6.20;;;19.20;86.70;;;;;;5073037;28;20606;-75
2022/03/16 11:18:46;;;;;;;7.73;6.93;;;19.00;86.30;;;;;;5072206;28;20593;-74
2022/03/16 11:21:28;;;;;;;7.87;7.17;;;18.70;82.70;;;;;;5039032;28;20562;-75
2022/03/16 11:27:20;;;;;;;6.63;6.10;;;18.70;89.10;;;;;;5052679;28;20638;-75
2022/03/16 11:29:47;;;;;;;9.17;8.47;;;18.70;90.00;;;;;;5052064;28;20560;-75
2022/03/16 11:32:18;;;;;;;6.40;5.80;;;18.30;85.90;;;;;;5052312;28;20567;-75
2022/03/16 11:35:06;;;;;;;8.00;6.43;;;18.00;87.30;;;;;;5028439;28;20686;-74
2022/03/16 11:37:46;;;;;;;5.50;5.00;;;18.00;88.00;;;;;;5043444;28;20621;-75
2022/03/16 11:40:20;;;;;;;5.57;5.07;;;17.70;89.00;;;;;;5051543;28;20572;-75
2022/03/16 11:43:04;;;;;;;5.90;5.40;;;17.80;91.30;;;;;;5055017;28;20710;-75
2022/03/16 11:45:39;;;;;;;6.03;5.20;;;18.00;90.90;;;;;;5033628;28;20678;-75
2022/03/16 11:48:37;;;;;;;7.00;6.40;;;18.30;91.70;;;;;;5051646;28;21090;-74
2022/03/16 11:51:17;;;;;;;6.50;6.00;;;18.10;90.50;;;;;;5051105;28;20954;-74
2022/03/16 11:56:40;;;;;;;6.67;6.07;;;17.80;88.30;;;;;;5051192;28;20610;-76
2022/03/16 11:59:40;;;;;;;6.10;5.60;;;17.70;90.30;;;;;;5051556;28;21060;-75
2022/03/16 12:02:18;;;;;;;5.63;5.13;;;17.70;90.80;;;;;;5033349;28;20647;-74
2022/03/16 12:04:49;;;;;;;5.70;5.20;;;17.70;91.00;;;;;;5033555;28;21154;-75
2022/03/16 12:07:22;;;;;;;4.67;4.20;;;17.50;90.70;;;;;;5033749;28;20563;-76
2022/03/16 12:09:54;;;;;;;5.13;4.73;;;17.60;92.20;;;;;;5013311;28;20607;-78
2022/03/16 12:12:51;;;;;;;5.47;4.97;;;17.70;91.30;;;;;;5030172;28;21260;-73
2022/03/16 12:15:38;;;;;;;5.60;5.00;;;17.80;91.40;;;;;;5049681;28;20615;-73
2022/03/16 12:18:04;;;;;;;5.70;5.20;;;17.80;91.70;;;;;;5052848;28;20575;-73
2022/03/16 12:21:10;;;;;;;6.30;5.30;;;17.90;91.30;;;;;;5034713;28;20626;-73
2022/03/16 12:23:57;;;;;;;4.80;4.40;;;17.90;90.90;;;;;;4950369;29;20647;-73
2022/03/16 12:26:25;;;;;;;5.50;5.00;;;17.90;88.90;;;;;;4950679;28;20829;-73
2022/03/16 12:29:03;;;;;;;7.30;6.70;;;17.90;91.00;;;;;;5008633;28;20615;-73
2022/03/16 12:31:30;;;;;;;5.10;4.67;;;17.60;88.80;;;;;;5025080;28;20609;-73
2022/03/16 12:33:57;;;;;;;5.07;4.67;;;17.60;90.60;;;;;;5037014;28;20590;-73
2022/03/16 12:36:31;;;;;;;4.50;4.10;;;17.50;90.80;;;;;;5062151;28;20623;-73
2022/03/16 12:39:04;;;;;;;5.30;4.90;;;17.50;91.50;;;;;;5061128;28;20581;-73
2022/03/16 12:44:17;;;;;;;5.83;5.33;;;17.60;91.90;;;;;;5066950;28;20583;-73
2022/03/16 12:46:49;;;;;;;6.83;6.13;;;17.60;91.60;;;;;;5054470;28;20595;-73
2022/03/16 12:49:18;;;;;;;6.37;5.57;;;17.50;90.40;;;;;;5054500;28;20587;-73
2022/03/16 12:51:46;;;;;;;6.00;5.40;;;17.30;90.90;;;;;;5053862;28;20604;-73
2022/03/16 12:54:33;;;;;;;5.27;4.77;;;17.20;91.00;;;;;;5054566;28;20564;-73
2022/03/16 12:57:08;;;;;;;6.20;5.70;;;17.00;91.10;;;;;;5054967;28;20586;-75
2022/03/16 12:59:39;;;;;;;9.43;6.90;;;17.10;91.60;;;;;;5054158;28;21259;-76
2022/03/16 13:02:10;;;;;;;7.20;5.77;;;16.90;91.20;;;;;;5035323;28;20651;-74
2022/03/16 13:04:37;;;;;;;6.97;6.37;;;16.70;91.50;;;;;;5054337;28;20632;-74
2022/03/16 13:07:05;;;;;;;6.50;5.60;;;16.70;91.70;;;;;;5054666;28;20566;-74
2022/03/16 13:09:32;;;;;;;4.90;4.50;;;16.70;92.30;;;;;;5036610;28;20575;-74
2022/03/16 13:12:03;;;;;;;5.83;5.17;;;16.70;92.50;;;;;;5053990;28;20563;-74
2022/03/16 13:14:29;;;;;;;5.30;4.80;;;16.70;92.30;;;;;;5054171;28;21187;-74
2022/03/16 13:16:58;;;;;;;5.57;4.90;;;16.70;92.70;;;;;;5053803;28;20949;-74